Time;durP1;ratioP1;P1;durP2;ratioP2;P2;SDS_P1;SDS_P2;PMS_P1;PMS_P2;Temp;Humidity;BMP_temperature;BMP_pressure;BME280_temperature;BME280_humidity;BME280_pressure;Samples;Min_cycle;Max_cycle;Signal;HPM_P1;HPM_P2
2022/10/28 00:02:06;;;;;;;18.70;9.23;;;11.80;99.90;;;;;;5072523;28;20201;-68
2022/10/28 00:04:33;;;;;;;13.77;9.43;;;11.90;99.90;;;;;;5072903;28;20667;-68
2022/10/28 00:07:00;;;;;;;15.30;9.43;;;11.90;99.90;;;;;;5072278;28;20201;-67
2022/10/28 00:09:27;;;;;;;14.27;9.47;;;11.90;99.90;;;;;;5073204;28;20574;-67
2022/10/28 00:11:55;;;;;;;14.93;9.80;;;11.90;99.90;;;;;;5072879;28;20215;-68
2022/10/28 00:14:22;;;;;;;13.97;9.40;;;11.90;99.90;;;;;;5072999;28;20686;-67
2022/10/28 00:16:48;;;;;;;17.43;10.07;;;11.90;99.90;;;;;;5072870;28;20212;-68
2022/10/28 00:19:15;;;;;;;14.63;9.47;;;11.90;99.90;;;;;;5072841;28;20208;-68
2022/10/28 00:21:44;;;;;;;15.97;10.10;;;11.90;99.90;;;;;;5072901;28;20211;-68
2022/10/28 00:24:12;;;;;;;13.23;9.47;;;11.90;99.90;;;;;;5072614;28;20196;-67
2022/10/28 00:26:41;;;;;;;13.00;9.27;;;11.90;99.90;;;;;;5072615;28;20204;-67
2022/10/28 00:29:11;;;;;;;14.33;9.93;;;11.90;99.90;;;;;;5072440;28;20204;-69
2022/10/28 00:31:39;;;;;;;14.77;9.57;;;11.90;99.90;;;;;;5072638;28;20193;-67
2022/10/28 00:34:09;;;;;;;16.57;10.30;;;11.90;99.90;;;;;;5072283;28;20229;-67
2022/10/28 00:36:37;;;;;;;14.73;8.97;;;11.90;99.90;;;;;;5072821;28;20577;-67
2022/10/28 00:39:10;;;;;;;15.57;11.00;;;11.90;99.90;;;;;;5071852;28;20208;-69
2022/10/28 00:41:38;;;;;;;13.63;10.20;;;11.90;99.90;;;;;;5072626;28;20200;-67
2022/10/28 00:44:38;;;;;;;15.57;10.23;;;11.90;99.90;;;;;;5072217;28;20223;-68
2022/10/28 00:47:14;;;;;;;20.47;10.23;;;11.90;99.90;;;;;;5071888;28;20688;-67
2022/10/28 00:49:42;;;;;;;15.50;10.33;;;11.80;99.90;;;;;;5072342;28;20188;-67
2022/10/28 00:52:13;;;;;;;18.33;11.20;;;11.90;99.90;;;;;;5071791;28;20241;-68
2022/10/28 00:54:40;;;;;;;15.50;10.27;;;11.80;99.90;;;;;;5072383;28;20652;-68
2022/10/28 00:57:12;;;;;;;19.20;11.13;;;11.80;99.90;;;;;;5071960;28;20205;-68
2022/10/28 00:59:43;;;;;;;16.87;10.80;;;11.80;99.90;;;;;;5071955;28;20558;-67
2022/10/28 01:02:12;;;;;;;15.80;10.60;;;11.80;99.90;;;;;;5071969;28;20200;-68
2022/10/28 01:04:39;;;;;;;17.90;10.93;;;11.80;99.90;;;;;;5071809;28;20200;-67
2022/10/28 01:07:06;;;;;;;19.03;11.27;;;11.80;99.90;;;;;;5068048;28;20198;-67
2022/10/28 01:09:33;;;;;;;19.47;11.23;;;11.80;99.90;;;;;;5051895;28;20209;-68
2022/10/28 01:12:08;;;;;;;18.23;10.80;;;11.80;99.90;;;;;;5051758;28;20228;-67
2022/10/28 01:14:46;;;;;;;18.17;10.93;;;11.70;99.90;;;;;;5051944;28;20671;-68
2022/10/28 01:17:39;;;;;;;18.97;11.00;;;11.70;99.90;;;;;;5051970;28;20555;-67
2022/10/28 01:20:33;;;;;;;18.70;11.10;;;11.70;99.90;;;;;;5051585;28;20202;-67
2022/10/28 01:23:06;;;;;;;14.43;10.57;;;11.70;99.90;;;;;;5051719;28;20190;-66
2022/10/28 01:26:17;;;;;;;19.80;11.40;;;11.70;99.90;;;;;;5051579;28;20193;-69
2022/10/28 01:29:12;;;;;;;17.40;11.67;;;11.70;99.90;;;;;;5046986;28;20672;-68
2022/10/28 01:31:43;;;;;;;18.37;11.10;;;11.70;99.90;;;;;;5051668;28;20209;-68
2022/10/28 01:34:17;;;;;;;16.90;11.70;;;11.70;99.90;;;;;;5051866;28;20670;-66
2022/10/28 01:36:54;;;;;;;18.70;11.87;;;11.70;99.90;;;;;;5051659;28;20553;-67
2022/10/28 01:39:28;;;;;;;18.33;10.97;;;11.70;99.90;;;;;;5051608;28;20193;-67
2022/10/28 01:42:06;;;;;;;15.13;10.97;;;11.70;99.90;;;;;;5051379;28;20189;-67
2022/10/28 01:44:41;;;;;;;17.80;11.47;;;11.60;99.90;;;;;;5051570;28;20189;-68
2022/10/28 01:47:13;;;;;;;16.97;11.47;;;11.70;99.90;;;;;;5051239;28;20196;-67
2022/10/28 01:49:45;;;;;;;16.73;11.70;;;11.70;99.90;;;;;;5051562;28;20197;-68
2022/10/28 01:52:14;;;;;;;17.50;11.43;;;11.60;99.90;;;;;;5051284;28;20240;-66
2022/10/28 01:54:47;;;;;;;18.83;12.17;;;11.60;99.90;;;;;;5051457;28;20209;-68
2022/10/28 01:57:15;;;;;;;19.33;11.53;;;11.60;99.90;;;;;;5051530;28;20205;-67
2022/10/28 01:59:44;;;;;;;20.13;11.83;;;11.70;99.90;;;;;;5050937;28;20216;-67
2022/10/28 02:02:14;;;;;;;19.53;12.17;;;11.60;99.90;;;;;;5051426;28;20578;-67
2022/10/28 02:04:41;;;;;;;18.57;11.77;;;11.60;99.90;;;;;;5051310;28;20203;-66
2022/10/28 02:07:08;;;;;;;16.17;11.50;;;11.60;99.90;;;;;;5051238;28;20689;-66
2022/10/28 02:09:48;;;;;;;20.03;11.53;;;11.60;99.90;;;;;;5051404;28;20205;-68
2022/10/28 02:12:25;;;;;;;16.70;10.63;;;11.50;99.90;;;;;;5051457;28;20194;-68
2022/10/28 02:15:19;;;;;;;17.60;11.50;;;11.50;99.90;;;;;;5050968;28;20209;-67
2022/10/28 02:18:06;;;;;;;17.17;11.53;;;11.50;99.90;;;;;;5051228;28;20197;-66
2022/10/28 02:20:39;;;;;;;16.73;11.33;;;11.40;99.90;;;;;;5051440;28;20220;-67
2022/10/28 02:23:16;;;;;;;15.97;10.90;;;11.40;99.90;;;;;;5050991;28;20193;-65
2022/10/28 02:25:48;;;;;;;18.20;11.00;;;11.50;99.90;;;;;;5051121;28;20216;-66
2022/10/28 02:28:19;;;;;;;15.83;10.60;;;11.50;99.90;;;;;;5051044;28;20190;-67
2022/10/28 02:30:51;;;;;;;17.93;11.47;;;11.50;99.90;;;;;;5054901;28;20189;-67
2022/10/28 02:33:23;;;;;;;17.50;10.93;;;11.40;99.90;;;;;;5054874;28;20239;-67
2022/10/28 02:35:55;;;;;;;17.80;11.23;;;11.40;99.90;;;;;;5054780;28;20549;-67
2022/10/28 02:38:27;;;;;;;21.30;11.07;;;11.50;99.90;;;;;;5055111;28;20201;-67
2022/10/28 02:40:59;;;;;;;17.67;11.37;;;11.40;99.90;;;;;;5054726;28;20540;-67
2022/10/28 02:43:27;;;;;;;17.90;11.67;;;11.40;99.90;;;;;;5054845;28;20561;-66
2022/10/28 02:45:58;;;;;;;17.80;12.10;;;11.40;99.90;;;;;;5054742;28;20217;-68
2022/10/28 02:48:31;;;;;;;25.57;12.93;;;11.40;99.90;;;;;;5074785;28;20279;-67
2022/10/28 02:51:01;;;;;;;19.00;12.23;;;11.40;99.90;;;;;;5074467;28;20210;-67
2022/10/28 02:53:32;;;;;;;20.07;12.13;;;11.40;99.90;;;;;;5074258;28;20232;-66
2022/10/28 02:56:04;;;;;;;19.80;12.87;;;11.40;99.90;;;;;;5065300;28;20737;-67
2022/10/28 02:58:38;;;;;;;21.63;13.07;;;11.40;99.90;;;;;;5071096;28;20193;-67
2022/10/28 03:01:05;;;;;;;22.90;12.07;;;11.40;99.90;;;;;;5073997;28;20199;-68
2022/10/28 03:03:34;;;;;;;19.37;11.67;;;11.30;99.90;;;;;;5065079;28;20212;-67
2022/10/28 03:06:00;;;;;;;17.53;12.07;;;11.30;99.90;;;;;;5063798;28;20561;-68
2022/10/28 03:08:27;;;;;;;18.90;11.20;;;11.30;99.90;;;;;;5064045;28;20193;-66
2022/10/28 03:10:54;;;;;;;21.10;12.07;;;11.30;99.90;;;;;;5062655;28;20568;-69
2022/10/28 03:13:21;;;;;;;19.50;11.80;;;11.30;99.90;;;;;;5061649;28;20632;-66
2022/10/28 03:15:47;;;;;;;20.33;11.83;;;11.20;99.90;;;;;;5061351;28;20202;-68
2022/10/28 03:18:14;;;;;;;18.43;10.97;;;11.20;99.90;;;;;;5062803;28;20546;-68
2022/10/28 03:20:42;;;;;;;23.90;11.90;;;11.20;99.90;;;;;;5063334;28;20291;-67
2022/10/28 03:23:09;;;;;;;19.20;11.83;;;11.20;99.90;;;;;;5062425;28;20208;-67
2022/10/28 03:25:36;;;;;;;17.43;11.30;;;11.10;99.90;;;;;;5054859;28;20201;-66
2022/10/28 03:28:02;;;;;;;18.53;11.10;;;11.10;99.90;;;;;;5067254;28;20209;-67
2022/10/28 03:30:29;;;;;;;19.27;12.50;;;11.00;99.90;;;;;;5069293;28;20669;-67
2022/10/28 03:32:56;;;;;;;23.07;12.23;;;11.00;99.90;;;;;;5053907;28;20224;-69
2022/10/28 03:35:23;;;;;;;20.10;12.90;;;11.00;99.90;;;;;;5053361;28;20240;-67
2022/10/28 03:37:51;;;;;;;19.50;12.07;;;11.00;99.90;;;;;;5053720;28;20208;-68
2022/10/28 03:40:18;;;;;;;21.40;11.40;;;11.00;99.90;;;;;;5053594;28;20679;-66
2022/10/28 03:42:45;;;;;;;18.97;12.23;;;11.00;99.90;;;;;;5055720;28;20236;-66
2022/10/28 03:45:11;;;;;;;21.27;11.93;;;11.00;99.90;;;;;;5073678;28;20529;-68
2022/10/28 03:47:39;;;;;;;16.13;11.20;;;10.90;99.90;;;;;;5073472;28;20563;-68
2022/10/28 03:50:07;;;;;;;21.70;11.67;;;11.00;99.90;;;;;;5072438;28;20217;-67
2022/10/28 03:52:34;;;;;;;22.70;12.47;;;10.90;99.90;;;;;;5072781;28;20236;-67
2022/10/28 03:55:02;;;;;;;18.77;11.57;;;10.90;99.90;;;;;;5073215;28;20227;-67
2022/10/28 03:57:30;;;;;;;18.90;12.40;;;10.90;99.90;;;;;;5072830;28;20209;-68
2022/10/28 03:59:57;;;;;;;19.83;12.40;;;10.90;99.90;;;;;;5071955;28;20564;-67
2022/10/28 04:02:25;;;;;;;17.83;11.97;;;10.90;99.90;;;;;;5072361;28;20214;-67
2022/10/28 04:04:52;;;;;;;18.83;11.70;;;10.90;99.90;;;;;;5072732;28;20237;-67
2022/10/28 04:07:19;;;;;;;21.70;12.60;;;10.90;99.90;;;;;;5072922;28;20201;-67
2022/10/28 04:09:48;;;;;;;19.17;12.77;;;10.90;99.90;;;;;;5054210;28;20211;-67
2022/10/28 04:12:17;;;;;;;16.93;12.17;;;10.80;99.90;;;;;;5060087;28;20214;-69
2022/10/28 04:14:43;;;;;;;19.00;12.33;;;10.80;99.90;;;;;;5072574;28;20694;-68
2022/10/28 04:17:10;;;;;;;19.07;12.13;;;10.70;99.90;;;;;;5072787;28;20220;-68
2022/10/28 04:19:37;;;;;;;20.57;12.33;;;10.70;99.90;;;;;;5072420;28;20215;-68
2022/10/28 04:22:04;;;;;;;19.37;12.50;;;10.70;99.90;;;;;;5072882;28;20210;-68
2022/10/28 04:24:30;;;;;;;18.10;11.50;;;10.70;99.90;;;;;;5072300;28;20207;-68
2022/10/28 04:26:57;;;;;;;18.23;11.80;;;10.70;99.90;;;;;;5071428;28;20230;-73
2022/10/28 04:29:25;;;;;;;18.53;12.27;;;10.70;99.90;;;;;;5072433;28;20200;-66
2022/10/28 04:31:52;;;;;;;19.43;12.67;;;10.80;99.90;;;;;;5072182;28;20208;-67
2022/10/28 04:34:19;;;;;;;20.50;12.90;;;10.70;99.90;;;;;;5061802;28;20243;-67
2022/10/28 04:36:46;;;;;;;21.23;12.50;;;10.80;99.90;;;;;;5052541;28;20573;-66
2022/10/28 04:39:12;;;;;;;18.13;12.23;;;10.80;99.90;;;;;;5052505;28;20206;-68
2022/10/28 04:41:39;;;;;;;22.60;13.57;;;10.80;99.90;;;;;;5051927;28;20210;-66
2022/10/28 04:44:06;;;;;;;18.87;12.63;;;10.80;99.90;;;;;;5069521;28;20539;-67
2022/10/28 04:46:34;;;;;;;19.23;12.30;;;10.70;99.90;;;;;;5059224;28;20201;-66
2022/10/28 04:49:01;;;;;;;23.37;13.60;;;10.70;99.90;;;;;;5052653;28;20212;-68
2022/10/28 04:51:28;;;;;;;19.17;12.37;;;10.70;99.90;;;;;;5060914;28;20196;-69
2022/10/28 04:53:54;;;;;;;19.27;12.67;;;10.70;99.90;;;;;;5071920;28;20244;-67
2022/10/28 04:56:21;;;;;;;17.47;12.53;;;10.70;99.90;;;;;;5060789;28;20201;-67
2022/10/28 04:58:48;;;;;;;18.70;12.53;;;10.70;99.90;;;;;;5052136;28;20679;-67
2022/10/28 05:01:15;;;;;;;20.57;13.73;;;10.70;99.90;;;;;;5059916;28;20207;-67
2022/10/28 05:03:43;;;;;;;20.80;12.50;;;10.60;99.90;;;;;;5072362;28;20211;-67
2022/10/28 05:06:10;;;;;;;17.50;12.80;;;10.70;99.90;;;;;;5062625;28;20500;-68
2022/10/28 05:08:37;;;;;;;21.63;13.60;;;10.70;99.90;;;;;;5051919;28;20224;-68
2022/10/28 05:11:04;;;;;;;20.77;14.07;;;10.60;99.90;;;;;;5065956;28;20204;-68
2022/10/28 05:13:30;;;;;;;20.87;13.10;;;10.60;99.90;;;;;;5060918;28;20597;-69
2022/10/28 05:15:57;;;;;;;20.83;13.40;;;10.70;99.90;;;;;;5059760;28;20720;-68
2022/10/28 05:18:24;;;;;;;21.60;13.27;;;10.70;99.90;;;;;;5064040;28;20203;-72
2022/10/28 05:20:53;;;;;;;21.80;13.77;;;10.70;99.90;;;;;;5062907;28;20586;-68
2022/10/28 05:23:21;;;;;;;24.27;14.20;;;10.70;99.90;;;;;;5060908;28;20232;-67
2022/10/28 05:25:48;;;;;;;21.83;13.43;;;10.70;99.90;;;;;;5058259;28;20248;-68
2022/10/28 05:28:15;;;;;;;23.00;14.00;;;10.70;99.90;;;;;;5060341;28;20208;-68
2022/10/28 05:30:42;;;;;;;22.60;13.67;;;10.60;99.90;;;;;;5061557;28;20559;-67
2022/10/28 05:33:10;;;;;;;29.00;14.50;;;10.70;99.90;;;;;;5062151;28;20201;-68
2022/10/28 05:35:37;;;;;;;24.90;14.50;;;10.70;99.90;;;;;;5059624;28;20232;-67
2022/10/28 05:38:05;;;;;;;26.70;14.17;;;10.70;99.90;;;;;;5060816;28;20196;-69
2022/10/28 05:40:32;;;;;;;23.40;14.33;;;10.70;99.90;;;;;;5061426;28;20563;-68
2022/10/28 05:42:59;;;;;;;22.80;14.47;;;10.70;99.90;;;;;;5058628;28;20223;-66
2022/10/28 05:45:26;;;;;;;26.73;16.70;;;10.70;99.90;;;;;;5060112;28;20682;-67
2022/10/28 05:47:53;;;;;;;46.23;15.97;;;10.70;99.90;;;;;;5061284;28;20193;-68
2022/10/28 05:50:20;;;;;;;28.80;15.23;;;10.80;99.90;;;;;;5068346;28;20962;-68
2022/10/28 09:45:26;;;;;;;8.20;4.10;;;12.90;99.90;;;;;;5109341;27;21080;-69
2022/10/28 09:47:58;;;;;;;6.93;3.77;;;13.80;99.90;;;;;;5109431;28;20184;-68
2022/10/28 09:50:30;;;;;;;7.47;3.70;;;13.90;99.90;;;;;;5109524;28;20184;-69
2022/10/28 09:53:03;;;;;;;7.20;3.83;;;14.10;99.90;;;;;;5109391;28;20210;-69
2022/10/28 09:55:31;;;;;;;7.03;4.23;;;14.10;99.90;;;;;;5109568;28;20200;-68
2022/10/28 09:57:58;;;;;;;9.07;4.53;;;14.20;99.90;;;;;;5109483;28;20609;-69
2022/10/28 10:00:26;;;;;;;4.90;3.47;;;14.30;99.90;;;;;;5109430;28;20199;-68
2022/10/28 10:02:57;;;;;;;5.53;3.80;;;14.30;99.90;;;;;;5109307;28;20532;-69
2022/10/28 10:05:25;;;;;;;5.63;3.80;;;14.40;99.90;;;;;;5109144;28;20191;-70
2022/10/28 10:07:55;;;;;;;5.23;3.33;;;14.50;99.90;;;;;;5109553;28;20204;-68
2022/10/28 10:10:25;;;;;;;5.53;3.63;;;14.50;99.90;;;;;;5109383;28;20206;-71
2022/10/28 10:12:55;;;;;;;7.97;3.50;;;14.60;99.90;;;;;;5108974;28;20203;-70
2022/10/28 10:15:30;;;;;;;13.07;3.67;;;14.70;99.90;;;;;;5109392;28;20196;-71
2022/10/28 10:17:59;;;;;;;6.33;3.03;;;14.70;99.90;;;;;;5109583;28;20526;-72
2022/10/28 10:20:26;;;;;;;8.03;3.10;;;14.70;99.90;;;;;;5109273;28;20571;-70
2022/10/28 10:22:53;;;;;;;5.10;3.30;;;14.80;99.90;;;;;;5108752;28;20205;-69
2022/10/28 10:25:28;;;;;;;7.80;3.57;;;14.80;99.90;;;;;;5109210;28;20210;-69
2022/10/28 10:27:59;;;;;;;4.57;2.73;;;14.80;99.90;;;;;;5109212;28;20189;-69
2022/10/28 10:30:31;;;;;;;5.10;3.27;;;14.90;99.90;;;;;;5109080;28;20652;-70
2022/10/28 10:32:58;;;;;;;4.33;2.87;;;14.90;99.90;;;;;;5108912;28;20202;-69
2022/10/28 10:35:28;;;;;;;3.67;2.30;;;14.90;99.90;;;;;;5098602;28;20239;-70
2022/10/28 10:37:56;;;;;;;3.50;2.40;;;15.00;99.90;;;;;;5106239;28;20199;-71
2022/10/28 10:40:25;;;;;;;6.07;2.77;;;15.00;99.90;;;;;;5114661;27;20231;-69
2022/10/28 10:42:53;;;;;;;6.57;2.97;;;15.00;99.90;;;;;;5105744;28;20212;-69
2022/10/28 10:45:23;;;;;;;6.03;3.13;;;15.00;99.90;;;;;;5090081;28;20201;-70
2022/10/28 10:48:07;;;;;;;6.87;3.07;;;15.00;99.90;;;;;;5095135;28;20241;-70
2022/10/28 10:50:36;;;;;;;5.83;3.23;;;15.10;99.90;;;;;;5094747;28;20589;-70
2022/10/28 10:53:04;;;;;;;5.00;3.23;;;15.10;99.90;;;;;;5094510;28;20204;-69
2022/10/28 10:55:37;;;;;;;6.07;3.03;;;15.10;99.90;;;;;;5091710;28;20208;-67
2022/10/28 10:58:06;;;;;;;4.50;3.20;;;15.10;99.90;;;;;;5087409;28;20203;-70
2022/10/28 11:00:36;;;;;;;9.43;5.67;;;15.20;99.90;;;;;;5094430;28;20206;-69
2022/10/28 11:03:07;;;;;;;4.50;3.10;;;15.10;99.90;;;;;;5081898;28;20209;-68
2022/10/28 11:05:34;;;;;;;5.37;3.20;;;15.20;99.90;;;;;;5092437;28;20613;-70
2022/10/28 11:08:03;;;;;;;8.20;4.33;;;15.20;99.90;;;;;;5088124;28;20597;-69
2022/10/28 11:10:34;;;;;;;4.17;3.10;;;15.20;99.90;;;;;;5085641;28;20227;-69
2022/10/28 11:13:04;;;;;;;5.90;3.20;;;15.20;99.90;;;;;;5076449;28;20210;-71
2022/10/28 11:15:31;;;;;;;7.13;3.27;;;15.30;99.90;;;;;;5087655;28;20760;-69
2022/10/28 11:18:00;;;;;;;5.53;3.03;;;15.20;99.90;;;;;;5094138;28;20596;-69
2022/10/28 11:20:39;;;;;;;5.60;3.10;;;15.20;99.90;;;;;;5087250;28;20233;-69
2022/10/28 11:23:25;;;;;;;7.30;4.00;;;15.20;99.90;;;;;;5074252;28;20628;-71
2022/10/28 11:25:54;;;;;;;5.67;3.87;;;15.20;99.90;;;;;;5074005;28;20201;-69
2022/10/28 11:28:46;;;;;;;4.80;3.40;;;15.30;99.90;;;;;;5077096;28;20231;-71
2022/10/28 11:31:26;;;;;;;5.53;3.37;;;15.30;99.90;;;;;;5082282;28;20575;-70
2022/10/28 11:34:08;;;;;;;3.90;2.80;;;15.30;99.90;;;;;;5089421;28;20223;-69
2022/10/28 11:36:41;;;;;;;4.97;3.03;;;15.40;99.90;;;;;;5077109;28;20212;-68
2022/10/28 11:39:20;;;;;;;5.23;3.07;;;15.40;99.90;;;;;;5093964;28;20220;-70
2022/10/28 11:42:00;;;;;;;5.13;3.00;;;15.30;99.90;;;;;;5093564;28;20213;-70
2022/10/28 11:44:38;;;;;;;7.10;3.73;;;15.30;99.90;;;;;;5093321;28;20565;-69
2022/10/28 11:47:16;;;;;;;5.03;3.00;;;15.30;99.90;;;;;;5075098;28;20208;-70
2022/10/28 11:50:08;;;;;;;4.83;3.00;;;15.30;99.90;;;;;;5073316;28;20190;-70
2022/10/28 11:52:55;;;;;;;5.57;2.80;;;15.40;99.90;;;;;;5073143;28;20554;-69
2022/10/28 11:55:32;;;;;;;6.60;3.23;;;15.40;99.90;;;;;;5071282;28;20244;-70
2022/10/28 11:58:09;;;;;;;6.37;3.30;;;15.40;99.90;;;;;;5072215;28;20239;-70
2022/10/28 12:00:45;;;;;;;6.67;2.90;;;15.40;99.90;;;;;;5073010;28;20194;-69
2022/10/28 12:03:38;;;;;;;3.67;2.83;;;15.30;99.90;;;;;;5083154;28;20557;-71
2022/10/28 12:06:15;;;;;;;4.40;3.30;;;15.30;99.90;;;;;;5083983;28;20647;-69
2022/10/28 12:09:00;;;;;;;7.50;3.53;;;15.30;99.90;;;;;;5076889;28;20373;-70
2022/10/28 12:11:39;;;;;;;8.27;3.37;;;15.30;99.90;;;;;;5073467;28;20194;-72
2022/10/28 12:14:12;;;;;;;6.03;3.10;;;15.30;99.90;;;;;;5075976;28;20224;-70
2022/10/28 12:16:44;;;;;;;5.83;3.23;;;15.30;99.90;;;;;;5080812;28;20193;-72
2022/10/28 12:19:16;;;;;;;3.93;3.10;;;15.30;99.90;;;;;;5092997;28;20700;-69
2022/10/28 12:21:47;;;;;;;7.03;3.40;;;15.30;99.90;;;;;;5087900;28;20221;-70
2022/10/28 12:24:20;;;;;;;5.60;3.63;;;15.30;99.90;;;;;;5094094;28;20202;-71
2022/10/28 12:26:51;;;;;;;7.00;3.53;;;15.30;99.90;;;;;;5093072;28;20666;-68
2022/10/28 12:29:24;;;;;;;5.03;3.20;;;15.30;99.90;;;;;;5092712;28;20198;-69
2022/10/28 12:31:57;;;;;;;4.60;3.10;;;15.30;99.90;;;;;;5093333;28;20229;-69
2022/10/28 12:34:31;;;;;;;8.23;3.73;;;15.30;99.90;;;;;;5079374;28;20221;-69
2022/10/28 12:37:02;;;;;;;5.77;3.40;;;15.20;99.90;;;;;;5075313;28;20580;-67
2022/10/28 12:39:35;;;;;;;4.73;3.53;;;15.20;99.90;;;;;;5072941;28;20211;-69
2022/10/28 12:42:09;;;;;;;7.07;3.87;;;15.20;99.90;;;;;;5081960;28;20208;-68
2022/10/28 12:44:38;;;;;;;4.67;3.37;;;15.20;99.90;;;;;;5088273;28;20235;-69
2022/10/28 12:47:16;;;;;;;5.70;3.70;;;15.20;99.90;;;;;;5088610;28;20670;-69
2022/10/28 12:49:53;;;;;;;4.70;3.23;;;15.20;99.90;;;;;;5072380;28;20476;-68
2022/10/28 12:52:33;;;;;;;4.60;3.70;;;15.20;99.90;;;;;;5072449;28;20195;-67
2022/10/28 12:55:07;;;;;;;7.30;3.77;;;15.20;99.90;;;;;;5075150;28;20217;-66
2022/10/28 12:57:36;;;;;;;4.60;3.40;;;15.20;99.90;;;;;;5072357;28;20222;-68
2022/10/28 13:00:06;;;;;;;5.87;3.87;;;15.10;99.90;;;;;;5071088;28;20272;-67
2022/10/28 13:02:41;;;;;;;6.13;3.90;;;15.10;99.90;;;;;;5079999;28;20212;-67
2022/10/28 13:05:19;;;;;;;5.93;3.53;;;15.10;99.90;;;;;;5091942;28;20560;-66
2022/10/28 13:08:10;;;;;;;6.23;4.40;;;15.10;99.90;;;;;;5091661;28;20195;-67
2022/10/28 13:10:46;;;;;;;6.73;4.40;;;15.10;99.90;;;;;;5084418;28;20566;-67
2022/10/28 13:13:27;;;;;;;6.53;5.03;;;15.10;99.90;;;;;;5074205;28;20216;-69
2022/10/28 13:16:26;;;;;;;9.40;6.20;;;15.10;99.90;;;;;;5072285;28;20554;-68
2022/10/28 13:19:40;;;;;;;10.17;6.53;;;15.10;99.90;;;;;;5065295;28;20213;-67
2022/10/28 13:22:30;;;;;;;11.97;8.20;;;15.10;99.90;;;;;;5049102;28;20232;-68
2022/10/28 13:25:05;;;;;;;11.60;6.63;;;15.00;99.90;;;;;;5025885;28;20520;-68
2022/10/28 13:27:34;;;;;;;9.30;6.53;;;15.00;99.90;;;;;;5049062;28;20219;-68
2022/10/28 13:30:02;;;;;;;9.10;6.10;;;15.00;99.90;;;;;;5054536;28;20197;-70
2022/10/28 18:48:53;;;;;;;23.37;15.50;;;10.80;99.90;;;;;;5127544;27;20625;-69
2022/10/28 18:51:19;;;;;;;26.50;16.97;;;12.10;99.90;;;;;;5125304;28;20199;-69
2022/10/28 18:53:48;;;;;;;25.37;16.30;;;12.20;99.90;;;;;;5127611;28;20714;-69
2022/10/28 18:56:16;;;;;;;28.87;17.73;;;12.30;99.90;;;;;;5127313;28;20203;-69
2022/10/28 18:58:44;;;;;;;24.70;17.20;;;12.30;99.90;;;;;;5127961;28;20213;-72
2022/10/28 19:01:12;;;;;;;26.60;17.87;;;12.40;99.90;;;;;;5127673;28;20293;-69
2022/10/28 19:03:40;;;;;;;25.80;17.03;;;12.50;99.90;;;;;;5127343;28;20202;-69
2022/10/28 19:06:10;;;;;;;30.77;19.80;;;12.50;99.90;;;;;;5127628;28;20248;-69
2022/10/28 19:08:38;;;;;;;29.97;18.73;;;12.50;99.90;;;;;;5127051;28;20210;-69
2022/10/28 19:11:06;;;;;;;37.53;24.23;;;12.60;99.90;;;;;;5125686;28;20630;-68
2022/10/28 19:13:34;;;;;;;36.80;23.57;;;12.60;99.90;;;;;;5106693;28;20207;-70
2022/10/28 19:16:01;;;;;;;39.87;27.77;;;12.60;99.90;;;;;;5088964;28;20212;-69
2022/10/28 19:18:28;;;;;;;37.43;24.60;;;12.70;99.90;;;;;;5058636;28;20236;-70
2022/10/28 19:21:02;;;;;;;31.47;21.33;;;12.70;99.90;;;;;;5060221;28;20223;-71
2022/10/28 19:23:31;;;;;;;31.33;19.87;;;12.70;99.90;;;;;;5068400;28;20196;-72
2022/10/28 19:25:58;;;;;;;32.17;19.40;;;12.70;99.90;;;;;;5056739;28;20210;-71
2022/10/28 19:28:25;;;;;;;27.93;18.60;;;12.80;99.90;;;;;;5048380;28;20659;-69
2022/10/28 19:31:00;;;;;;;28.93;18.27;;;12.80;99.90;;;;;;5048285;28;20201;-70
2022/10/28 19:33:28;;;;;;;25.20;17.13;;;12.80;99.90;;;;;;5057603;28;20200;-69
2022/10/28 19:35:59;;;;;;;25.73;17.43;;;12.80;99.90;;;;;;5067898;28;20213;-69
2022/10/28 19:38:31;;;;;;;25.77;16.93;;;12.90;99.90;;;;;;5071381;28;20224;-68
2022/10/28 19:41:02;;;;;;;28.60;17.83;;;12.90;99.90;;;;;;5080546;28;20572;-68
2022/10/28 19:43:29;;;;;;;27.77;18.30;;;12.90;99.90;;;;;;5053974;28;20193;-71
2022/10/28 19:46:03;;;;;;;27.63;18.60;;;12.90;99.90;;;;;;5053669;28;20224;-72
2022/10/28 19:48:29;;;;;;;26.00;16.90;;;12.90;99.90;;;;;;5051269;28;20248;-70
2022/10/28 19:50:56;;;;;;;26.07;16.63;;;13.00;99.90;;;;;;5052559;28;20205;-70
2022/10/28 19:53:23;;;;;;;31.23;19.37;;;13.00;99.90;;;;;;5055065;28;20209;-71
2022/10/28 19:55:55;;;;;;;27.87;18.57;;;13.00;99.90;;;;;;5053920;28;20295;-72
2022/10/28 19:58:22;;;;;;;28.77;17.77;;;13.00;99.90;;;;;;5054561;28;20190;-70
2022/10/28 20:00:49;;;;;;;28.00;18.33;;;13.10;99.90;;;;;;5048600;28;20229;-70
2022/10/28 20:03:16;;;;;;;29.93;18.20;;;13.10;99.90;;;;;;5068527;28;20223;-70
2022/10/28 20:05:43;;;;;;;28.00;18.40;;;13.10;99.90;;;;;;5067684;28;20209;-70
2022/10/28 20:08:09;;;;;;;26.97;16.97;;;13.10;99.90;;;;;;5051988;28;20201;-72
2022/10/28 20:10:36;;;;;;;28.10;18.27;;;13.10;99.90;;;;;;5052704;28;20197;-70
2022/10/28 20:13:04;;;;;;;24.87;17.10;;;13.10;99.90;;;;;;5052199;28;20208;-70
2022/10/28 20:15:31;;;;;;;27.50;16.37;;;13.10;99.90;;;;;;5052961;28;20229;-70
2022/10/28 20:17:58;;;;;;;27.10;17.97;;;13.20;99.90;;;;;;5055001;28;20197;-70
2022/10/28 20:20:25;;;;;;;24.60;16.83;;;13.20;99.90;;;;;;5053055;28;20217;-68
2022/10/28 20:22:51;;;;;;;26.80;18.10;;;13.20;99.90;;;;;;5053151;28;20206;-69
2022/10/28 20:25:18;;;;;;;28.60;17.17;;;13.20;99.90;;;;;;5046662;28;20202;-69
2022/10/28 20:27:45;;;;;;;29.37;17.23;;;13.20;99.90;;;;;;5052848;28;20566;-70
2022/10/28 20:30:14;;;;;;;26.30;17.87;;;13.20;99.90;;;;;;5047850;28;20224;-69
2022/10/28 20:32:40;;;;;;;27.03;17.23;;;13.20;99.90;;;;;;5046979;28;20206;-70
2022/10/28 20:35:08;;;;;;;25.17;17.00;;;13.20;99.90;;;;;;5056457;28;20224;-70
2022/10/28 20:37:34;;;;;;;26.37;17.10;;;13.20;99.90;;;;;;5069380;28;20574;-69
2022/10/28 20:40:01;;;;;;;24.50;16.47;;;13.30;99.90;;;;;;5053428;28;20429;-68
2022/10/28 20:42:28;;;;;;;23.87;16.90;;;13.20;99.90;;;;;;5052501;28;20201;-69
2022/10/28 20:44:55;;;;;;;24.70;16.83;;;13.30;99.90;;;;;;5053541;28;20205;-68
2022/10/28 20:47:23;;;;;;;25.67;17.33;;;13.30;99.90;;;;;;5052305;28;20245;-71
2022/10/28 20:49:50;;;;;;;24.27;16.57;;;13.30;99.90;;;;;;5052503;28;20198;-69
2022/10/28 20:52:17;;;;;;;23.27;16.20;;;13.30;99.90;;;;;;5037763;28;20309;-69
2022/10/28 20:54:44;;;;;;;23.83;17.17;;;13.30;99.90;;;;;;5049095;28;20204;-69
2022/10/28 20:57:11;;;;;;;24.17;16.83;;;13.30;99.90;;;;;;5053613;28;20212;-69
2022/10/28 20:59:38;;;;;;;23.80;16.93;;;13.30;99.90;;;;;;5052449;28;20253;-69
2022/10/28 21:02:04;;;;;;;25.53;17.00;;;13.30;99.90;;;;;;5052390;28;20747;-69
2022/10/28 21:04:32;;;;;;;25.20;17.77;;;13.30;99.90;;;;;;5051991;28;20669;-69
2022/10/28 21:06:59;;;;;;;24.07;17.30;;;13.30;99.90;;;;;;5052743;28;20210;-70
2022/10/28 21:09:26;;;;;;;25.93;17.30;;;13.30;99.90;;;;;;5051055;28;20656;-69
2022/10/28 21:11:53;;;;;;;25.93;18.30;;;13.30;99.90;;;;;;5051184;28;20556;-69
2022/10/28 21:14:21;;;;;;;24.27;16.63;;;13.20;99.90;;;;;;5052642;28;20570;-70
2022/10/28 21:16:50;;;;;;;26.00;17.57;;;13.30;99.90;;;;;;5053262;28;20225;-70
2022/10/28 21:19:16;;;;;;;23.37;16.37;;;13.30;99.90;;;;;;5052948;28;20208;-68
2022/10/28 21:21:45;;;;;;;25.13;15.93;;;13.30;99.90;;;;;;5053325;28;20201;-70
2022/10/28 21:24:11;;;;;;;22.77;16.57;;;13.20;99.90;;;;;;5051794;28;20205;-69
2022/10/28 21:26:38;;;;;;;27.33;17.50;;;13.20;99.90;;;;;;5053275;28;20206;-71
2022/10/28 21:29:05;;;;;;;26.73;17.20;;;13.20;99.90;;;;;;5053621;28;20205;-71
2022/10/28 21:31:32;;;;;;;23.13;16.60;;;13.20;99.90;;;;;;5052472;28;20201;-69
2022/10/28 21:33:59;;;;;;;23.30;16.57;;;13.20;99.90;;;;;;5052634;28;20212;-69
2022/10/28 21:36:25;;;;;;;23.50;15.93;;;13.20;99.90;;;;;;5061513;28;20300;-68
2022/10/28 21:38:55;;;;;;;25.50;16.87;;;13.20;99.90;;;;;;5052673;28;20205;-70
2022/10/28 21:41:22;;;;;;;28.30;17.37;;;13.20;99.90;;;;;;5061885;28;20228;-71
2022/10/28 21:43:51;;;;;;;26.73;17.37;;;13.20;99.90;;;;;;5072797;28;20208;-69
2022/10/28 21:46:18;;;;;;;23.33;16.10;;;13.20;99.90;;;;;;5072658;28;20207;-69
2022/10/28 21:48:45;;;;;;;25.80;17.03;;;13.20;99.90;;;;;;5072378;28;20252;-69
2022/10/28 21:51:14;;;;;;;23.47;15.77;;;13.20;99.90;;;;;;5072369;28;20693;-69
2022/10/28 21:53:41;;;;;;;21.97;15.73;;;13.20;99.90;;;;;;5061603;28;20209;-72
2022/10/28 21:56:10;;;;;;;25.07;15.23;;;13.20;99.90;;;;;;5052517;28;20228;-69
2022/10/28 21:58:39;;;;;;;25.13;16.13;;;13.20;99.90;;;;;;5050726;28;20702;-68
2022/10/28 22:01:07;;;;;;;20.67;15.23;;;13.20;99.90;;;;;;5043633;28;20236;-69